首页
METAR-TAF:

METAR-TAF

机场 :

格林维尔, 密西西比州, 美国

纬度: 33-28-58N, 经度: 090-59-08W, 海拔: 40米

当前天气观测

该预报发布于1小时和2分钟前的22:53 UTC
风速7节,风向西南
温度 22°C
湿度 73%
气压 1009 hPa
能見度: 11.3公里
天空无云

METAR: KGLH 092253Z 22007KT 7SM CLR 22/17 A2979 RMK AO2 SLP095 T02170167

时间: 17:55 (23:55 UTC)

预报

该预报发布于6小时和11分钟前的17:44 UTC
预报有效从09日的 18点(UTC)到 10日的 18点(UTC)
风速15节,风向南转西南,有时为26节阵风
能見度: 10公里
阴天层高于2500英尺
从 09日的 2200点(UTC)
风速10节,风向南转西南
能見度: 10公里
阴天层高于3500英尺
从 10日的 0500点(UTC)
风速18节,风向北转西北,有时为25节阵风
能見度: 8.0公里
阴天层高于2500英尺
小雨
从 10日的 1400点(UTC)
风速15节,风向,有时为20节阵风
能見度: 8.0公里
阴天层高于800英尺
小雨

TAF: KGLH 091744Z 0918/1018 21015G26KT P6SM OVC025 FM092200 21010KT P6SM OVC035 FM100500 34018G25KT 5SM -RA OVC025 FM101400 01015G20KT 5SM -RA OVC008

超过4000个机场的气象观测和天气预报(METAR&TAF报告)。

可查询的气象台以黄色和红色小点在地图上表示。

将鼠标移到小点上方,可查看气象台名称。

然后点击查看天气观测和预报。

如需切换地图:点击带黑十字的绿色按钮放大地图;点击带横线的绿色按钮缩小地图;或者点击绿色箭头查看邻近地区的地图。


METAR-TAF: